createdAt,value
2023-05-07T00:04:01.149Z,92.08
2023-05-07T00:09:04.536Z,92.38
2023-05-07T00:14:06.234Z,92.53
2023-05-07T00:19:08.131Z,92.34
2023-05-07T00:24:09.765Z,91.98
2023-05-07T00:29:11.413Z,92.12
2023-05-07T00:34:13.053Z,92.19
2023-05-07T00:39:15.026Z,92.08
2023-05-07T00:44:16.802Z,92.00
2023-05-07T00:49:19.592Z,92.11
2023-05-07T00:54:22.669Z,92.21
2023-05-07T00:59:24.730Z,92.52
2023-05-07T01:04:27.822Z,92.71
2023-05-07T01:09:30.252Z,92.67
2023-05-07T01:14:34.050Z,92.79
2023-05-07T01:19:36.156Z,94.02
2023-05-07T01:24:39.046Z,94.68
2023-05-07T01:29:42.737Z,94.54
2023-05-07T01:34:47.423Z,93.58
2023-05-07T01:39:49.553Z,93.59
2023-05-07T01:44:52.555Z,94.04
2023-05-07T01:49:54.217Z,93.67
2023-05-07T01:54:56.035Z,93.25
2023-05-07T01:59:58.112Z,94.22
2023-05-07T02:05:00.431Z,94.18
2023-05-07T02:10:02.779Z,93.74
2023-05-07T02:15:05.033Z,93.46
2023-05-07T02:20:14.121Z,93.93
2023-05-07T02:25:16.907Z,93.71
2023-05-07T02:30:18.903Z,93.88
2023-05-07T02:35:20.596Z,93.96
2023-05-07T02:40:22.347Z,93.86
2023-05-07T02:45:24.241Z,93.67
2023-05-07T02:50:28.418Z,93.80
2023-05-07T02:55:32.357Z,93.48
2023-05-07T03:00:34.702Z,93.64
2023-05-07T03:05:48.742Z,93.36
2023-05-07T03:10:50.687Z,93.50
2023-05-07T03:15:52.664Z,93.97
2023-05-07T03:20:54.677Z,95.24
2023-05-07T03:25:56.956Z,94.92
2023-05-07T03:30:58.964Z,95.42
2023-05-07T03:36:00.998Z,95.29
2023-05-07T03:41:03.897Z,95.90
2023-05-07T03:46:06.097Z,95.52
2023-05-07T03:51:07.952Z,95.70
2023-05-07T03:56:09.827Z,95.78
2023-05-07T04:01:14.830Z,95.98
2023-05-07T04:06:18.413Z,96.14
2023-05-07T04:11:22.872Z,96.68
2023-05-07T04:16:24.947Z,96.76
2023-05-07T04:21:27.436Z,97.73
2023-05-07T04:26:30.454Z,97.79
2023-05-07T04:31:32.875Z,98.22
2023-05-07T04:36:35.094Z,98.41
2023-05-07T04:41:41.227Z,97.64
2023-05-07T04:46:43.961Z,96.89
2023-05-07T04:51:46.057Z,96.26
2023-05-07T04:56:50.538Z,95.88
2023-05-07T05:01:53.120Z,95.89
2023-05-07T05:06:55.284Z,96.06
2023-05-07T05:11:57.128Z,95.46
2023-05-07T05:16:59.083Z,95.51
2023-05-07T05:22:02.145Z,95.37
2023-05-07T05:27:05.333Z,94.94
2023-05-07T05:32:07.439Z,94.88
2023-05-07T05:37:10.285Z,94.44
2023-05-07T05:42:12.220Z,93.71
2023-05-07T05:47:14.975Z,91.65
2023-05-07T05:52:18.167Z,91.81
2023-05-07T05:57:21.333Z,90.52
2023-05-07T06:02:23.299Z,90.76
2023-05-07T06:07:26.224Z,88.26
2023-05-07T06:12:28.623Z,89.05
2023-05-07T06:17:30.375Z,88.05
2023-05-07T06:22:32.406Z,88.91
2023-05-07T06:27:34.517Z,88.67
2023-05-07T06:32:37.705Z,88.09
2023-05-07T06:37:40.598Z,87.64
2023-05-07T06:42:43.168Z,88.23
2023-05-07T06:48:17.119Z,85.15
2023-05-07T06:53:30.296Z,84.88
2023-05-07T06:58:33.955Z,83.59
2023-05-07T07:03:36.015Z,81.55
2023-05-07T07:08:39.715Z,80.77
2023-05-07T07:13:43.812Z,81.10
2023-05-07T07:18:46.000Z,79.86
2023-05-07T07:23:47.665Z,80.47
2023-05-07T07:28:50.044Z,80.37
2023-05-07T07:33:55.268Z,79.97
2023-05-07T07:38:57.080Z,79.99
2023-05-07T07:43:59.460Z,78.42
2023-05-07T07:49:01.278Z,78.83
2023-05-07T07:54:03.907Z,77.95
2023-05-07T07:59:07.611Z,77.19
2023-05-07T08:04:13.115Z,75.65
2023-05-07T08:09:17.132Z,76.23
2023-05-07T08:14:20.825Z,73.65
2023-05-07T08:19:23.960Z,74.52
2023-05-07T08:24:26.340Z,73.62
2023-05-07T08:29:28.712Z,71.57
2023-05-07T08:34:30.409Z,71.94
2023-05-07T08:39:34.076Z,70.34
2023-05-07T08:44:36.323Z,70.23
2023-05-07T08:49:38.189Z,69.74
2023-05-07T08:54:42.601Z,70.26
2023-05-07T08:59:45.595Z,69.31
2023-05-07T09:04:47.403Z,66.08
2023-05-07T09:09:49.394Z,68.85
2023-05-07T09:14:51.198Z,68.30
2023-05-07T09:19:54.455Z,66.73
2023-05-07T09:24:56.227Z,65.89
2023-05-07T09:30:04.983Z,67.66
2023-05-07T09:35:15.290Z,66.17
2023-05-07T09:40:25.198Z,66.43
2023-05-07T09:45:29.612Z,65.88
2023-05-07T09:50:50.922Z,64.27
2023-05-07T09:55:56.628Z,66.58
2023-05-07T10:00:58.814Z,64.87
2023-05-07T10:06:02.013Z,64.34
2023-05-07T10:11:05.989Z,62.46
2023-05-07T10:16:08.560Z,65.27
2023-05-07T10:21:22.508Z,63.82
2023-05-07T10:26:26.784Z,64.02
2023-05-07T10:32:10.082Z,61.08
2023-05-07T10:37:13.857Z,61.12
2023-05-07T10:42:17.028Z,59.58
2023-05-07T10:47:24.853Z,61.92
2023-05-07T10:52:31.343Z,59.26
2023-05-07T10:57:39.642Z,62.06
2023-05-07T11:03:10.630Z,59.29
2023-05-07T11:08:18.415Z,61.50
2023-05-07T11:13:43.203Z,61.00
2023-05-07T11:18:49.815Z,58.68
2023-05-07T11:23:56.591Z,56.04
2023-05-07T11:29:12.835Z,58.89
2023-05-07T11:34:21.469Z,57.95
2023-05-07T11:39:32.624Z,61.06
2023-05-07T11:44:47.198Z,62.73
2023-05-07T11:49:51.338Z,59.83
2023-05-07T11:54:58.274Z,59.46
2023-05-07T12:00:02.786Z,61.20
2023-05-07T12:05:14.478Z,60.18
2023-05-07T12:10:16.584Z,59.56
2023-05-07T12:15:18.697Z,58.67
2023-05-07T12:20:20.447Z,58.30
2023-05-07T12:25:22.115Z,58.96
2023-05-07T12:30:23.718Z,58.61
2023-05-07T12:35:32.822Z,56.36
2023-05-07T12:40:41.977Z,57.21
2023-05-07T12:45:43.827Z,58.21
2023-05-07T12:50:45.656Z,57.02
2023-05-07T12:55:49.357Z,56.53
2023-05-07T13:00:52.168Z,56.28
2023-05-07T13:05:58.937Z,57.33
2023-05-07T13:11:04.551Z,55.92
2023-05-07T13:16:09.689Z,55.55
2023-05-07T13:21:14.334Z,56.31
2023-05-07T13:26:26.285Z,56.72
2023-05-07T13:31:28.937Z,58.17
2023-05-07T13:36:33.965Z,58.48
2023-05-07T13:41:35.612Z,60.26
2023-05-07T13:46:37.439Z,58.94
2023-05-07T13:51:39.327Z,59.73
2023-05-07T13:56:41.210Z,58.44
2023-05-07T14:01:42.878Z,58.83
2023-05-07T14:06:44.729Z,60.19
2023-05-07T14:11:48.522Z,59.40
2023-05-07T14:16:51.120Z,60.15
2023-05-07T14:21:53.131Z,61.39
2023-05-07T14:26:54.876Z,61.07
2023-05-07T14:31:56.622Z,60.22
2023-05-07T14:37:01.371Z,60.18
2023-05-07T14:42:03.164Z,61.72
2023-05-07T14:47:04.881Z,62.86
2023-05-07T14:52:07.207Z,62.35
2023-05-07T14:57:10.821Z,62.84
2023-05-07T15:02:13.209Z,63.10
2023-05-07T15:07:16.299Z,63.42
2023-05-07T15:12:18.269Z,64.04
2023-05-07T15:17:19.887Z,63.80
2023-05-07T15:22:22.745Z,63.82
2023-05-07T15:27:24.774Z,63.96
2023-05-07T15:32:26.729Z,63.91
2023-05-07T15:37:28.405Z,64.10
2023-05-07T15:42:30.054Z,64.01
2023-05-07T15:47:34.097Z,65.06
2023-05-07T15:52:35.981Z,64.55
2023-05-07T15:57:37.630Z,64.98
2023-05-07T16:02:39.871Z,65.82
2023-05-07T16:07:44.152Z,64.99
2023-05-07T16:12:45.824Z,65.02
2023-05-07T16:17:51.856Z,65.10
2023-05-07T16:22:53.617Z,65.47
2023-05-07T16:27:56.514Z,65.11
2023-05-07T16:32:58.245Z,65.32
2023-05-07T16:38:00.316Z,65.35
2023-05-07T16:43:03.868Z,65.98
2023-05-07T16:48:06.033Z,66.48
2023-05-07T16:53:07.763Z,65.92
2023-05-07T16:58:11.003Z,67.22
2023-05-07T17:03:13.010Z,67.85
2023-05-07T17:08:15.181Z,68.72
2023-05-07T17:13:17.046Z,68.85
2023-05-07T17:18:18.924Z,70.37
2023-05-07T17:23:20.736Z,70.99
2023-05-07T17:28:22.614Z,71.35
2023-05-07T17:33:24.280Z,70.71
2023-05-07T17:38:26.266Z,70.81
2023-05-07T17:43:27.974Z,71.09
2023-05-07T17:48:29.615Z,71.42
2023-05-07T17:53:31.299Z,72.33
2023-05-07T17:58:35.011Z,72.89
2023-05-07T18:03:40.497Z,73.67
2023-05-07T18:08:42.187Z,73.51
2023-05-07T18:13:43.787Z,73.80
2023-05-07T18:18:46.896Z,74.00
2023-05-07T18:23:49.608Z,74.08
2023-05-07T18:28:51.416Z,74.26
2023-05-07T18:33:54.316Z,75.61
2023-05-07T18:38:55.992Z,75.69
2023-05-07T18:43:57.945Z,76.32
2023-05-07T18:48:59.596Z,75.79
2023-05-07T18:54:04.079Z,76.49
2023-05-07T18:59:05.675Z,76.01
2023-05-07T19:04:07.489Z,76.60
2023-05-07T19:09:09.228Z,77.55
2023-05-07T19:14:11.102Z,76.74
2023-05-07T19:19:12.897Z,76.47
2023-05-07T19:24:14.610Z,76.61
2023-05-07T19:29:18.136Z,77.07
2023-05-07T19:34:20.261Z,77.12
2023-05-07T19:39:21.963Z,76.83
2023-05-07T19:44:23.600Z,76.71
2023-05-07T19:49:25.405Z,78.00
2023-05-07T19:54:28.903Z,77.82
2023-05-07T19:59:30.599Z,78.05
2023-05-07T20:04:37.274Z,77.64
2023-05-07T20:09:38.895Z,77.87
2023-05-07T20:14:40.676Z,77.53
2023-05-07T20:19:42.273Z,76.36
2023-05-07T20:24:43.884Z,75.99
2023-05-07T20:29:46.852Z,76.89
2023-05-07T20:34:48.496Z,76.92
2023-05-07T20:39:50.221Z,76.92
2023-05-07T20:44:51.923Z,77.24
2023-05-07T20:49:54.771Z,77.08
2023-05-07T20:54:56.564Z,76.89
2023-05-07T20:59:58.182Z,76.72
2023-05-07T21:04:59.781Z,76.67
2023-05-07T21:10:01.587Z,76.92
2023-05-07T21:15:03.806Z,77.01
2023-05-07T21:20:06.076Z,76.44
2023-05-07T21:25:08.109Z,76.30
2023-05-07T21:30:10.753Z,76.68
2023-05-07T21:35:13.177Z,76.85
2023-05-07T21:40:15.287Z,77.63
2023-05-07T21:45:17.235Z,77.09
2023-05-07T21:50:19.320Z,77.16
2023-05-07T21:55:21.131Z,77.28
2023-05-07T22:00:23.786Z,77.50
2023-05-07T22:05:25.418Z,77.39
2023-05-07T22:10:27.072Z,77.22
2023-05-07T22:15:28.680Z,77.62
2023-05-07T22:20:30.335Z,77.75
2023-05-07T22:25:34.587Z,77.87
2023-05-07T22:30:36.212Z,78.07
2023-05-07T22:35:37.952Z,78.06
2023-05-07T22:40:39.618Z,78.05
2023-05-07T22:45:41.789Z,79.49
2023-05-07T22:50:43.395Z,78.71
2023-05-07T22:55:45.016Z,78.38
2023-05-07T23:00:47.499Z,79.58
2023-05-07T23:05:49.305Z,78.83
2023-05-07T23:10:50.910Z,79.39
2023-05-07T23:15:52.548Z,78.89
2023-05-07T23:20:54.117Z,78.92
2023-05-07T23:25:55.948Z,79.42
2023-05-07T23:30:57.657Z,78.93
2023-05-07T23:36:04.594Z,79.43
2023-05-07T23:41:06.322Z,79.30
2023-05-07T23:46:07.953Z,79.45
2023-05-07T23:51:09.563Z,79.44
2023-05-07T23:56:11.318Z,79.84
